Liguria — IRKJ — position and weather

sailwx.info

Track history (hours):
 
Tides and Currents Weather Stations Pressure Air Temp Water Temp Dewpoint Dewpoint Depression Visibility Wind Speed Wind Dir Waves Ship Positions

Liguria

Last reported at 2017-Jun-22 07:51 UTC. Time now 2017-Jun-22 14:18 UTC.
Position N 44°18' E 008°29'.

; draft 4.5 m.

Type: Tug. MMSI: 247228500.

Date/timePositionNaut miles runAvg speedWind from/ knotsBaromVisibWave heightAir tempDewpointWater temp
2017-Jun-22 07:51N 44°18' E 008°29'0 0.0
2017-Jun-22 07:27N 44°18' E 008°29'0 0.0
2017-Jun-22 06:57N 44°18' E 008°29'0 0.0
2017-Jun-22 06:30N 44°18' E 008°29'0 0.0
2017-Jun-22 06:00N 44°18' E 008°29'0 0.0
2017-Jun-22 05:30N 44°18' E 008°29'0 0.0
2017-Jun-22 05:00N 44°18' E 008°29'0 0.0
2017-Jun-22 04:30N 44°18' E 008°29'0 0.0
2017-Jun-22 03:57N 44°18' E 008°29'0 0.0
2017-Jun-22 03:30N 44°18' E 008°29'0 0.0
2017-Jun-22 02:57N 44°18' E 008°29'0 0.0
2017-Jun-22 02:30N 44°18' E 008°29'0 0.0
2017-Jun-22 02:00N 44°18' E 008°29'0 0.0
2017-Jun-22 01:30N 44°18' E 008°29'0 0.0
2017-Jun-22 01:00N 44°18' E 008°29'0 0.0
2017-Jun-22 00:30N 44°18' E 008°29'0 0.0
2017-Jun-22 00:00N 44°18' E 008°29'0 0.0
2017-Jun-21 23:24N 44°18' E 008°29'0 0.0
2017-Jun-21 22:54N 44°18' E 008°29'0 0.0
2017-Jun-21 22:24N 44°18' E 008°29'0 0.0
2017-Jun-21 21:54N 44°18' E 008°29'0 0.0
2017-Jun-21 21:27N 44°18' E 008°29'0 0.0
2017-Jun-21 13:27N 44°18' E 008°29'0 0.0
2017-Jun-21 12:51N 44°18' E 008°29'0 0.0
2017-Jun-20 15:19N 44°18' E 008°29'0 0.0
2017-Jun-20 14:55N 44°18' E 008°29'0 0.0
2017-Jun-20 13:55N 44°18' E 008°29'0 0.0
2017-Jun-20 13:25N 44°18' E 008°29'1 1.3
2017-Jun-20 12:56N 44°19' E 008°30'1 1.2
2017-Jun-20 12:26N 44°18' E 008°29'0 0.0
2017-Jun-20 11:56N 44°18' E 008°29'0 0.0
2017-Jun-20 08:10N 44°18' E 008°29'0 0.0
2017-Jun-20 07:58N 44°18' E 008°29'0 0.0
2017-Jun-20 07:25N 44°18' E 008°29'0 0.0
2017-Jun-20 06:04N 44°18' E 008°29'0 0.0
2017-Jun-18 20:10N 44°18' E 008°29'0 0.0
2017-Jun-18 18:04N 44°18' E 008°29'0 0.0
2017-Jun-18 17:52N 44°18' E 008°29'0 0.0
2017-Jun-18 17:22N 44°18' E 008°29'0 0.0
2017-Jun-18 16:52N 44°18' E 008°29'0 0.0
2017-Jun-18 16:07N 44°18' E 008°29'0 0.0
2017-Jun-18 15:58N 44°18' E 008°29'0 0.0
2017-Jun-18 15:22N 44°18' E 008°29'0 0.0
2017-Jun-18 14:40N 44°18' E 008°29'0 0.0
2017-Jun-18 13:55N 44°18' E 008°29'0 0.0
2017-Jun-18 13:22N 44°18' E 008°29'0 0.0
2017-Jun-18 12:58N 44°18' E 008°29'0 0.0
2017-Jun-18 07:16N 44°18' E 008°29'0 0.0
2017-Jun-18 06:34N 44°18' E 008°29'0 0.0
2017-Jun-18 06:28N 44°18' E 008°29'0 0.0
2017-Jun-18 05:58N 44°18' E 008°29'0 0.0
2017-Jun-18 05:16N 44°18' E 008°29'0 0.0
2017-Jun-18 04:52N 44°18' E 008°29'0 0.0
2017-Jun-18 04:16N 44°18' E 008°29'0 0.0
2017-Jun-18 03:55N 44°18' E 008°29'0 0.0
2017-Jun-16 15:53N 44°18' E 008°29'2 4.8
2017-Jun-16 15:30N 44°19' E 008°32'510.4
2017-Jun-16 15:00N 44°21' E 008°39'8 7.9
2017-Jun-16 14:00N 44°23' E 008°49'3 7.1
2017-Jun-16 13:30N 44°23' E 008°54'2 3.8
2017-Jun-16 13:00N 44°25' E 008°55'0 0.2
2017-Jun-16 12:30N 44°25' E 008°56'0 0.0
2017-Jun-16 12:00N 44°25' E 008°56'0 0.0
2017-Jun-16 11:24N 44°25' E 008°56'0 0.0
2017-Jun-16 10:54N 44°25' E 008°56'0 0.0
2017-Jun-16 10:27N 44°25' E 008°56'0 0.1
2017-Jun-16 09:57N 44°25' E 008°56'0 0.0
2017-Jun-16 09:27N 44°25' E 008°56'0 0.0
2017-Jun-16 09:00N 44°25' E 008°56'0 0.0
2017-Jun-16 08:30N 44°25' E 008°56'0 0.0
2017-Jun-16 08:00N 44°25' E 008°56'0 0.0
2017-Jun-16 07:30N 44°25' E 008°56'0 0.0
2017-Jun-16 07:00N 44°25' E 008°56'0 0.0
2017-Jun-16 06:30N 44°25' E 008°56'0 0.0
2017-Jun-15 17:29N 44°25' E 008°56'0 0.0
2017-Jun-15 16:59N 44°25' E 008°56'0 0.0
2017-Jun-15 16:26N 44°25' E 008°56'0 0.0
2017-Jun-15 15:59N 44°25' E 008°56'0 0.0
2017-Jun-15 15:29N 44°25' E 008°56'0 0.0
2017-Jun-15 14:59N 44°25' E 008°56'0 0.0
2017-Jun-15 13:44N 44°25' E 008°56'0 0.0
2017-Jun-15 13:23N 44°25' E 008°56'0 0.0
2017-Jun-15 12:53N 44°25' E 008°56'0 0.0
2017-Jun-15 12:29N 44°25' E 008°56'0 0.0
2017-Jun-15 11:59N 44°25' E 008°56'0 0.0
2017-Jun-15 11:20N 44°25' E 008°56'0 0.0
2017-Jun-15 10:50N 44°25' E 008°56'0 0.0
2017-Jun-15 10:23N 44°25' E 008°56'0 0.0
2017-Jun-15 09:56N 44°25' E 008°56'0 0.0
2017-Jun-15 09:23N 44°25' E 008°56'0 0.0
2017-Jun-15 08:53N 44°25' E 008°56'0 0.0
2017-Jun-15 08:26N 44°25' E 008°56'0 0.0
2017-Jun-15 07:59N 44°25' E 008°56'0 0.0
2017-Jun-15 07:26N 44°25' E 008°56'0 0.0
2017-Jun-15 06:59N 44°25' E 008°56'0 0.0
2017-Jun-15 06:29N 44°25' E 008°56'0 0.0
2017-Jun-14 16:13N 44°25' E 008°56'0 0.0
2017-Jun-14 15:58N 44°25' E 008°56'0 0.0
2017-Jun-14 15:28N 44°25' E 008°56'0 0.0
2017-Jun-14 14:58N 44°25' E 008°56'0 0.0
2017-Jun-14 14:28N 44°25' E 008°56'0 0.0
2017-Jun-14 13:28N 44°25' E 008°56'0 0.0
2017-Jun-14 12:58N 44°25' E 008°56'0 0.0
2017-Jun-14 12:28N 44°25' E 008°56'0 0.0
2017-Jun-14 11:55N 44°25' E 008°56'0 0.0
2017-Jun-14 11:22N 44°25' E 008°56'0 0.0
2017-Jun-14 10:58N 44°25' E 008°56'0 0.0
2017-Jun-14 10:25N 44°25' E 008°56'0 0.0
2017-Jun-14 09:52N 44°25' E 008°56'0 0.0
2017-Jun-14 09:25N 44°25' E 008°56'0 0.0
2017-Jun-14 08:58N 44°25' E 008°56'0 0.0
2017-Jun-14 08:22N 44°25' E 008°56'0 0.0
2017-Jun-14 07:55N 44°25' E 008°56'0 0.0
2017-Jun-14 07:28N 44°25' E 008°56'0 0.0
2017-Jun-14 06:55N 44°25' E 008°56'0 0.0
2017-Jun-14 06:28N 44°25' E 008°56'0 0.0
2017-Jun-14 05:55N 44°25' E 008°56'0 0.0
2017-Jun-14 05:25N 44°25' E 008°56'0 0.0
2017-Jun-14 04:55N 44°25' E 008°56'0 0.0
2017-Jun-14 04:28N 44°25' E 008°56'0 0.0
2017-Jun-14 03:58N 44°25' E 008°56'0 0.0
2017-Jun-14 03:28N 44°25' E 008°56'0 0.0
2017-Jun-14 02:58N 44°25' E 008°56'0 0.0
2017-Jun-14 02:28N 44°25' E 008°56'0 0.0
2017-Jun-14 01:58N 44°25' E 008°56'0 0.0
2017-Jun-14 01:28N 44°25' E 008°56'0 0.0
2017-Jun-14 00:58N 44°25' E 008°56'0 0.0
2017-Jun-14 00:28N 44°25' E 008°56'0 0.0
2017-Jun-13 23:58N 44°25' E 008°56'0 0.0
2017-Jun-13 23:28N 44°25' E 008°56'0 0.0
2017-Jun-13 22:58N 44°25' E 008°56'0 0.0
2017-Jun-13 22:28N 44°25' E 008°56'0 0.0
2017-Jun-13 21:58N 44°25' E 008°56'0 0.0
2017-Jun-13 21:25N 44°25' E 008°56'0 0.0
2017-Jun-13 20:58N 44°25' E 008°56'0 0.0
2017-Jun-13 20:28N 44°25' E 008°56'0 0.0
2017-Jun-13 19:55N 44°25' E 008°56'0 0.0
2017-Jun-13 19:19N 44°25' E 008°56'0 0.0
2017-Jun-13 18:55N 44°25' E 008°56'0 0.0
2017-Jun-13 18:28N 44°25' E 008°56'0 0.0
2017-Jun-13 17:55N 44°25' E 008°56'0 0.0
2017-Jun-13 17:25N 44°25' E 008°56'0 0.0
2017-Jun-13 16:58N 44°25' E 008°56'0 0.0
2017-Jun-13 16:25N 44°25' E 008°56'0 0.0
2017-Jun-13 15:58N 44°25' E 008°56'0 0.0
2017-Jun-13 15:25N 44°25' E 008°56'0 0.0
2017-Jun-13 14:58N 44°25' E 008°56'0 0.0
2017-Jun-13 13:58N 44°25' E 008°56'0 0.0
2017-Jun-13 13:28N 44°25' E 008°56'0 0.0
2017-Jun-13 12:58N 44°25' E 008°56'0 0.0
2017-Jun-13 12:28N 44°25' E 008°56'0 0.0
2017-Jun-13 11:58N 44°25' E 008°56'0 0.0
2017-Jun-13 11:28N 44°25' E 008°56'0 0.0
2017-Jun-13 10:58N 44°25' E 008°56'0 0.0
2017-Jun-13 10:28N 44°25' E 008°56'0 0.0
2017-Jun-13 09:58N 44°25' E 008°56'0 0.0
2017-Jun-13 09:25N 44°25' E 008°56'0 0.0
2017-Jun-13 08:58N 44°25' E 008°56'0 0.0
2017-Jun-13 08:28N 44°25' E 008°56'0 0.0
2017-Jun-13 07:58N 44°25' E 008°56'0 0.0
2017-Jun-13 07:16N 44°25' E 008°56'0 0.0
2017-Jun-13 06:55N 44°25' E 008°56'0 0.0
2017-Jun-12 16:47N 44°25' E 008°56'0 0.0
2017-Jun-12 16:29N 44°25' E 008°56'0 0.0
2017-Jun-12 15:59N 44°25' E 008°56'0 0.0
2017-Jun-12 15:29N 44°25' E 008°56'0 0.0
2017-Jun-12 14:50N 44°25' E 008°56'0 0.0
2017-Jun-12 14:20N 44°25' E 008°56'0 0.0
2017-Jun-12 13:23N 44°25' E 008°56'0 0.0
2017-Jun-12 12:53N 44°25' E 008°56'0 0.0
2017-Jun-12 12:23N 44°25' E 008°56'0 0.0
2017-Jun-12 11:53N 44°25' E 008°56'0 0.0
2017-Jun-12 11:08N 44°25' E 008°56'0 0.0
2017-Jun-12 10:53N 44°25' E 008°56'0 0.0
2017-Jun-12 10:26N 44°25' E 008°56'0 0.0
2017-Jun-12 09:56N 44°25' E 008°56'0 0.0
2017-Jun-12 09:26N 44°25' E 008°56'0 0.0
2017-Jun-12 08:56N 44°25' E 008°56'0 0.0
2017-Jun-12 08:26N 44°25' E 008°56'0 0.0
2017-Jun-12 07:56N 44°25' E 008°56'  
Track history (hours):
 
Tides and Currents Weather Stations Pressure Air Temp Water Temp Dewpoint Dewpoint Depression Visibility Wind Speed Wind Dir Waves Ship Positions

Liguria

Last reported at 2017-Jun-22 07:51 UTC. Time now 2017-Jun-22 14:18 UTC.
Position N 44°18' E 008°29'.

; draft 4.5 m.

Type: Tug. MMSI: 247228500.

Date/timePositionNaut miles runAvg speedWind from/ knotsBaromVisibWave heightAir tempDewpointWater temp
2017-Jun-22 07:51N 44°18' E 008°29'0 0.0
2017-Jun-22 07:27N 44°18' E 008°29'0 0.0
2017-Jun-22 06:57N 44°18' E 008°29'0 0.0
2017-Jun-22 06:30N 44°18' E 008°29'0 0.0
2017-Jun-22 06:00N 44°18' E 008°29'0 0.0
2017-Jun-22 05:30N 44°18' E 008°29'0 0.0
2017-Jun-22 05:00N 44°18' E 008°29'0 0.0
2017-Jun-22 04:30N 44°18' E 008°29'0 0.0
2017-Jun-22 03:57N 44°18' E 008°29'0 0.0
2017-Jun-22 03:30N 44°18' E 008°29'0 0.0
2017-Jun-22 02:57N 44°18' E 008°29'0 0.0
2017-Jun-22 02:30N 44°18' E 008°29'0 0.0
2017-Jun-22 02:00N 44°18' E 008°29'0 0.0
2017-Jun-22 01:30N 44°18' E 008°29'0 0.0
2017-Jun-22 01:00N 44°18' E 008°29'0 0.0
2017-Jun-22 00:30N 44°18' E 008°29'0 0.0
2017-Jun-22 00:00N 44°18' E 008°29'0 0.0
2017-Jun-21 23:24N 44°18' E 008°29'0 0.0
2017-Jun-21 22:54N 44°18' E 008°29'0 0.0
2017-Jun-21 22:24N 44°18' E 008°29'0 0.0
2017-Jun-21 21:54N 44°18' E 008°29'0 0.0
2017-Jun-21 21:27N 44°18' E 008°29'0 0.0
2017-Jun-21 13:27N 44°18' E 008°29'0 0.0
2017-Jun-21 12:51N 44°18' E 008°29'0 0.0
2017-Jun-20 15:19N 44°18' E 008°29'0 0.0
2017-Jun-20 14:55N 44°18' E 008°29'0 0.0
2017-Jun-20 13:55N 44°18' E 008°29'0 0.0
2017-Jun-20 13:25N 44°18' E 008°29'1 1.3
2017-Jun-20 12:56N 44°19' E 008°30'1 1.2
2017-Jun-20 12:26N 44°18' E 008°29'0 0.0
2017-Jun-20 11:56N 44°18' E 008°29'0 0.0
2017-Jun-20 08:10N 44°18' E 008°29'0 0.0
2017-Jun-20 07:58N 44°18' E 008°29'0 0.0
2017-Jun-20 07:25N 44°18' E 008°29'0 0.0
2017-Jun-20 06:04N 44°18' E 008°29'0 0.0
2017-Jun-18 20:10N 44°18' E 008°29'0 0.0
2017-Jun-18 18:04N 44°18' E 008°29'0 0.0
2017-Jun-18 17:52N 44°18' E 008°29'0 0.0
2017-Jun-18 17:22N 44°18' E 008°29'0 0.0
2017-Jun-18 16:52N 44°18' E 008°29'0 0.0
2017-Jun-18 16:07N 44°18' E 008°29'0 0.0
2017-Jun-18 15:58N 44°18' E 008°29'0 0.0
2017-Jun-18 15:22N 44°18' E 008°29'0 0.0
2017-Jun-18 14:40N 44°18' E 008°29'0 0.0
2017-Jun-18 13:55N 44°18' E 008°29'0 0.0
2017-Jun-18 13:22N 44°18' E 008°29'0 0.0
2017-Jun-18 12:58N 44°18' E 008°29'0 0.0
2017-Jun-18 07:16N 44°18' E 008°29'0 0.0
2017-Jun-18 06:34N 44°18' E 008°29'0 0.0
2017-Jun-18 06:28N 44°18' E 008°29'0 0.0
2017-Jun-18 05:58N 44°18' E 008°29'0 0.0
2017-Jun-18 05:16N 44°18' E 008°29'0 0.0
2017-Jun-18 04:52N 44°18' E 008°29'0 0.0
2017-Jun-18 04:16N 44°18' E 008°29'0 0.0
2017-Jun-18 03:55N 44°18' E 008°29'0 0.0
2017-Jun-16 15:53N 44°18' E 008°29'2 4.8
2017-Jun-16 15:30N 44°19' E 008°32'510.4
2017-Jun-16 15:00N 44°21' E 008°39'8 7.9
2017-Jun-16 14:00N 44°23' E 008°49'3 7.1
2017-Jun-16 13:30N 44°23' E 008°54'2 3.8
2017-Jun-16 13:00N 44°25' E 008°55'0 0.2
2017-Jun-16 12:30N 44°25' E 008°56'0 0.0
2017-Jun-16 12:00N 44°25' E 008°56'0 0.0
2017-Jun-16 11:24N 44°25' E 008°56'0 0.0
2017-Jun-16 10:54N 44°25' E 008°56'0 0.0
2017-Jun-16 10:27N 44°25' E 008°56'0 0.1
2017-Jun-16 09:57N 44°25' E 008°56'0 0.0
2017-Jun-16 09:27N 44°25' E 008°56'0 0.0
2017-Jun-16 09:00N 44°25' E 008°56'0 0.0
2017-Jun-16 08:30N 44°25' E 008°56'0 0.0
2017-Jun-16 08:00N 44°25' E 008°56'0 0.0
2017-Jun-16 07:30N 44°25' E 008°56'0 0.0
2017-Jun-16 07:00N 44°25' E 008°56'0 0.0
2017-Jun-16 06:30N 44°25' E 008°56'0 0.0
2017-Jun-15 17:29N 44°25' E 008°56'0 0.0
2017-Jun-15 16:59N 44°25' E 008°56'0 0.0
2017-Jun-15 16:26N 44°25' E 008°56'0 0.0
2017-Jun-15 15:59N 44°25' E 008°56'0 0.0
2017-Jun-15 15:29N 44°25' E 008°56'0 0.0
2017-Jun-15 14:59N 44°25' E 008°56'0 0.0
2017-Jun-15 13:44N 44°25' E 008°56'0 0.0
2017-Jun-15 13:23N 44°25' E 008°56'0 0.0
2017-Jun-15 12:53N 44°25' E 008°56'0 0.0
2017-Jun-15 12:29N 44°25' E 008°56'0 0.0
2017-Jun-15 11:59N 44°25' E 008°56'0 0.0
2017-Jun-15 11:20N 44°25' E 008°56'0 0.0
2017-Jun-15 10:50N 44°25' E 008°56'0 0.0
2017-Jun-15 10:23N 44°25' E 008°56'0 0.0
2017-Jun-15 09:56N 44°25' E 008°56'0 0.0
2017-Jun-15 09:23N 44°25' E 008°56'0 0.0
2017-Jun-15 08:53N 44°25' E 008°56'0 0.0
2017-Jun-15 08:26N 44°25' E 008°56'0 0.0
2017-Jun-15 07:59N 44°25' E 008°56'0 0.0
2017-Jun-15 07:26N 44°25' E 008°56'0 0.0
2017-Jun-15 06:59N 44°25' E 008°56'0 0.0
2017-Jun-15 06:29N 44°25' E 008°56'0 0.0
2017-Jun-14 16:13N 44°25' E 008°56'0 0.0
2017-Jun-14 15:58N 44°25' E 008°56'0 0.0
2017-Jun-14 15:28N 44°25' E 008°56'0 0.0
2017-Jun-14 14:58N 44°25' E 008°56'0 0.0
2017-Jun-14 14:28N 44°25' E 008°56'0 0.0
2017-Jun-14 13:28N 44°25' E 008°56'0 0.0
2017-Jun-14 12:58N 44°25' E 008°56'0 0.0
2017-Jun-14 12:28N 44°25' E 008°56'0 0.0
2017-Jun-14 11:55N 44°25' E 008°56'0 0.0
2017-Jun-14 11:22N 44°25' E 008°56'0 0.0
2017-Jun-14 10:58N 44°25' E 008°56'0 0.0
2017-Jun-14 10:25N 44°25' E 008°56'0 0.0
2017-Jun-14 09:52N 44°25' E 008°56'0 0.0
2017-Jun-14 09:25N 44°25' E 008°56'0 0.0
2017-Jun-14 08:58N 44°25' E 008°56'0 0.0
2017-Jun-14 08:22N 44°25' E 008°56'0 0.0
2017-Jun-14 07:55N 44°25' E 008°56'0 0.0
2017-Jun-14 07:28N 44°25' E 008°56'0 0.0
2017-Jun-14 06:55N 44°25' E 008°56'0 0.0
2017-Jun-14 06:28N 44°25' E 008°56'0 0.0
2017-Jun-14 05:55N 44°25' E 008°56'0 0.0
2017-Jun-14 05:25N 44°25' E 008°56'0 0.0
2017-Jun-14 04:55N 44°25' E 008°56'0 0.0
2017-Jun-14 04:28N 44°25' E 008°56'0 0.0
2017-Jun-14 03:58N 44°25' E 008°56'0 0.0
2017-Jun-14 03:28N 44°25' E 008°56'0 0.0
2017-Jun-14 02:58N 44°25' E 008°56'0 0.0
2017-Jun-14 02:28N 44°25' E 008°56'0 0.0
2017-Jun-14 01:58N 44°25' E 008°56'0 0.0
2017-Jun-14 01:28N 44°25' E 008°56'0 0.0
2017-Jun-14 00:58N 44°25' E 008°56'0 0.0
2017-Jun-14 00:28N 44°25' E 008°56'0 0.0
2017-Jun-13 23:58N 44°25' E 008°56'0 0.0
2017-Jun-13 23:28N 44°25' E 008°56'0 0.0
2017-Jun-13 22:58N 44°25' E 008°56'0 0.0
2017-Jun-13 22:28N 44°25' E 008°56'0 0.0
2017-Jun-13 21:58N 44°25' E 008°56'0 0.0
2017-Jun-13 21:25N 44°25' E 008°56'0 0.0
2017-Jun-13 20:58N 44°25' E 008°56'0 0.0
2017-Jun-13 20:28N 44°25' E 008°56'0 0.0
2017-Jun-13 19:55N 44°25' E 008°56'0 0.0
2017-Jun-13 19:19N 44°25' E 008°56'0 0.0
2017-Jun-13 18:55N 44°25' E 008°56'0 0.0
2017-Jun-13 18:28N 44°25' E 008°56'0 0.0
2017-Jun-13 17:55N 44°25' E 008°56'0 0.0
2017-Jun-13 17:25N 44°25' E 008°56'0 0.0
2017-Jun-13 16:58N 44°25' E 008°56'0 0.0
2017-Jun-13 16:25N 44°25' E 008°56'0 0.0
2017-Jun-13 15:58N 44°25' E 008°56'0 0.0
2017-Jun-13 15:25N 44°25' E 008°56'0 0.0
2017-Jun-13 14:58N 44°25' E 008°56'0 0.0
2017-Jun-13 13:58N 44°25' E 008°56'0 0.0
2017-Jun-13 13:28N 44°25' E 008°56'0 0.0
2017-Jun-13 12:58N 44°25' E 008°56'0 0.0
2017-Jun-13 12:28N 44°25' E 008°56'0 0.0
2017-Jun-13 11:58N 44°25' E 008°56'0 0.0
2017-Jun-13 11:28N 44°25' E 008°56'0 0.0
2017-Jun-13 10:58N 44°25' E 008°56'0 0.0
2017-Jun-13 10:28N 44°25' E 008°56'0 0.0
2017-Jun-13 09:58N 44°25' E 008°56'0 0.0
2017-Jun-13 09:25N 44°25' E 008°56'0 0.0
2017-Jun-13 08:58N 44°25' E 008°56'0 0.0
2017-Jun-13 08:28N 44°25' E 008°56'0 0.0
2017-Jun-13 07:58N 44°25' E 008°56'0 0.0
2017-Jun-13 07:16N 44°25' E 008°56'0 0.0
2017-Jun-13 06:55N 44°25' E 008°56'0 0.0
2017-Jun-12 16:47N 44°25' E 008°56'0 0.0
2017-Jun-12 16:29N 44°25' E 008°56'0 0.0
2017-Jun-12 15:59N 44°25' E 008°56'0 0.0
2017-Jun-12 15:29N 44°25' E 008°56'0 0.0
2017-Jun-12 14:50N 44°25' E 008°56'0 0.0
2017-Jun-12 14:20N 44°25' E 008°56'0 0.0
2017-Jun-12 13:23N 44°25' E 008°56'0 0.0
2017-Jun-12 12:53N 44°25' E 008°56'0 0.0
2017-Jun-12 12:23N 44°25' E 008°56'0 0.0
2017-Jun-12 11:53N 44°25' E 008°56'0 0.0
2017-Jun-12 11:08N 44°25' E 008°56'0 0.0
2017-Jun-12 10:53N 44°25' E 008°56'0 0.0
2017-Jun-12 10:26N 44°25' E 008°56'0 0.0
2017-Jun-12 09:56N 44°25' E 008°56'0 0.0
2017-Jun-12 09:26N 44°25' E 008°56'0 0.0
2017-Jun-12 08:56N 44°25' E 008°56'0 0.0
2017-Jun-12 08:26N 44°25' E 008°56'0 0.0
2017-Jun-12 07:56N 44°25' E 008°56'  

Dump ship's entire track history